Time;durP1;ratioP1;P1;durP2;ratioP2;P2;SDS_P1;SDS_P2;PMS_P1;PMS_P2;Temp;Humidity;BMP_temperature;BMP_pressure;BME280_temperature;BME280_humidity;BME280_pressure;Samples;Min_cycle;Max_cycle;Signal;HPM_P1;HPM_P2
2022/08/12 00:44:59;;;;;;;1.80;1.58;;;23.60;99.90;;;;;;10319174;28;20641;-91
2022/08/12 00:50:03;;;;;;;3.70;2.13;;;23.50;99.90;;;;;;10332040;28;20306;-91
2022/08/12 00:55:06;;;;;;;2.70;1.80;;;23.50;99.90;;;;;;10331500;28;20248;-91
2022/08/12 01:00:18;;;;;;;1.85;1.73;;;23.50;99.90;;;;;;10317332;28;20288;-91
2022/08/12 01:16:08;;;;;;;2.20;1.65;;;23.40;99.90;;;;;;10291858;28;20760;-91
2022/08/12 01:21:23;;;;;;;2.50;1.27;;;23.40;99.90;;;;;;10310472;28;20201;-90
2022/08/12 01:26:27;;;;;;;2.72;1.65;;;23.40;99.90;;;;;;10309992;28;20303;-90
2022/08/12 01:31:30;;;;;;;2.25;1.70;;;23.40;99.90;;;;;;10306658;28;20205;-91
2022/08/12 01:36:44;;;;;;;3.22;1.80;;;23.40;99.90;;;;;;10293224;28;20233;-91
2022/08/12 01:41:52;;;;;;;1.83;1.45;;;23.40;99.90;;;;;;10289942;28;20669;-89
2022/08/12 01:47:13;;;;;;;2.45;2.10;;;23.30;99.90;;;;;;10309743;28;20249;-89
2022/08/12 01:52:31;;;;;;;3.13;1.73;;;23.30;99.90;;;;;;10291488;28;20283;-89
2022/08/12 01:57:56;;;;;;;2.45;1.95;;;23.30;99.90;;;;;;10290593;28;20197;-89
2022/08/12 02:14:55;;;;;;;2.25;1.90;;;23.20;99.90;;;;;;10288817;28;20745;-89
2022/08/12 02:20:08;;;;;;;2.22;1.83;;;23.20;99.90;;;;;;10316402;28;20267;-89
2022/08/12 02:25:33;;;;;;;2.13;1.92;;;23.20;99.90;;;;;;10289937;28;20253;-89
2022/08/12 02:30:36;;;;;;;3.40;2.63;;;23.20;99.90;;;;;;10273801;28;20206;-89
2022/08/12 02:35:44;;;;;;;4.35;2.08;;;23.20;99.90;;;;;;10288304;28;20283;-89
2022/08/12 02:40:51;;;;;;;1.92;1.80;;;23.20;99.90;;;;;;10288844;28;20240;-89
2022/08/12 02:46:00;;;;;;;2.05;1.75;;;23.10;99.90;;;;;;10289480;28;20245;-89
2022/08/12 02:51:06;;;;;;;2.55;2.03;;;23.20;99.90;;;;;;10291907;28;20201;-89
2022/08/12 02:56:08;;;;;;;2.80;1.73;;;23.20;99.90;;;;;;10287729;28;20218;-89
2022/08/12 03:01:12;;;;;;;2.55;2.00;;;23.10;99.90;;;;;;10286769;28;20245;-89
2022/08/12 03:06:20;;;;;;;3.17;1.70;;;23.20;99.90;;;;;;10306946;28;20256;-89
2022/08/12 03:11:52;;;;;;;3.25;2.28;;;23.10;99.90;;;;;;10327166;28;20256;-89
2022/08/12 03:17:10;;;;;;;4.93;2.33;;;23.20;99.90;;;;;;10308101;28;20264;-88
2022/08/12 03:22:13;;;;;;;2.63;2.15;;;23.20;99.90;;;;;;10287078;28;20688;-89
2022/08/12 03:27:16;;;;;;;3.83;2.08;;;23.20;99.90;;;;;;10286830;28;20798;-89
2022/08/12 03:32:22;;;;;;;2.95;2.15;;;23.20;99.90;;;;;;10288065;28;20240;-89
2022/08/12 03:37:45;;;;;;;3.22;1.95;;;23.20;99.90;;;;;;10311111;28;20748;-89
2022/08/12 04:04:25;;;;;;;2.28;1.85;;;23.10;99.90;;;;;;10302414;28;20612;-89
2022/08/12 04:09:29;;;;;;;2.75;1.85;;;23.10;99.90;;;;;;10295632;28;20307;-89
2022/08/12 04:14:32;;;;;;;2.30;2.10;;;23.10;99.90;;;;;;10310766;28;20210;-89
2022/08/12 04:19:36;;;;;;;2.80;2.10;;;23.10;99.90;;;;;;10333385;28;20205;-88
2022/08/12 04:24:39;;;;;;;2.97;1.92;;;23.10;99.90;;;;;;10333817;28;20240;-91
2022/08/12 04:29:43;;;;;;;3.47;2.20;;;23.10;99.90;;;;;;10317367;28;20237;-89
2022/08/12 04:35:06;;;;;;;1.92;1.73;;;23.20;99.90;;;;;;10304485;28;20244;-91
2022/08/12 04:40:12;;;;;;;5.10;2.17;;;23.10;99.90;;;;;;10300039;28;20264;-88
2022/08/12 04:45:14;;;;;;;3.63;2.38;;;23.10;99.90;;;;;;10298485;28;20205;-88
2022/08/12 04:50:24;;;;;;;3.00;1.98;;;23.10;99.90;;;;;;10293628;28;20201;-91
2022/08/12 04:55:38;;;;;;;3.22;2.00;;;23.20;99.90;;;;;;10297484;28;20580;-89
2022/08/12 05:00:40;;;;;;;12.73;4.32;;;23.30;99.90;;;;;;10330976;28;20220;-90
2022/08/12 05:05:44;;;;;;;14.45;3.92;;;22.70;99.90;;;;;;10323602;28;20221;-90
2022/08/12 05:10:47;;;;;;;14.43;4.07;;;22.30;99.90;;;;;;10337711;28;20220;-89
2022/08/12 05:15:50;;;;;;;18.20;4.07;;;22.60;99.90;;;;;;10332912;28;20205;-89
2022/08/12 05:21:08;;;;;;;9.82;3.53;;;22.70;99.90;;;;;;10348316;28;20236;-90
2022/08/12 05:26:13;;;;;;;13.60;3.88;;;22.80;99.90;;;;;;10329075;28;20244;-89
2022/08/12 05:31:16;;;;;;;9.48;2.90;;;23.00;99.90;;;;;;10348681;28;20266;-89
2022/08/12 05:36:40;;;;;;;6.25;3.42;;;23.10;99.90;;;;;;10340120;28;20225;-90
2022/08/12 05:41:43;;;;;;;8.43;3.33;;;23.20;99.90;;;;;;10348610;28;20273;-90
2022/08/12 05:46:45;;;;;;;12.13;3.35;;;23.30;99.90;;;;;;10320903;28;20249;-89
2022/08/12 05:51:48;;;;;;;6.97;3.30;;;23.30;99.90;;;;;;10309880;28;20229;-89
2022/08/12 05:56:51;;;;;;;9.68;3.78;;;23.40;99.90;;;;;;10299907;28;20641;-89
2022/08/12 06:02:02;;;;;;;7.20;3.15;;;23.50;99.90;;;;;;10315398;28;20288;-90
2022/08/12 06:07:14;;;;;;;12.63;3.42;;;23.50;99.90;;;;;;10287883;28;20253;-90
2022/08/12 06:12:37;;;;;;;5.85;3.00;;;23.60;99.90;;;;;;10321252;28;20253;-90
2022/08/12 06:17:39;;;;;;;5.68;3.00;;;23.60;99.90;;;;;;10309303;28;20695;-90
2022/08/12 06:22:44;;;;;;;10.10;3.47;;;23.60;99.90;;;;;;10327023;28;20275;-91
2022/08/12 06:27:48;;;;;;;5.18;3.42;;;23.60;99.90;;;;;;10323162;28;20249;-90
2022/08/12 06:33:10;;;;;;;4.15;3.17;;;23.50;99.90;;;;;;10309173;28;20728;-90
2022/08/12 06:38:33;;;;;;;4.82;3.15;;;23.40;99.90;;;;;;10326573;28;20232;-91
2022/08/12 06:43:36;;;;;;;6.50;3.13;;;23.50;99.90;;;;;;10309111;28;20287;-89
2022/08/12 06:49:00;;;;;;;2.83;2.53;;;23.50;99.90;;;;;;10317519;28;20284;-89
2022/08/12 06:54:02;;;;;;;7.28;3.60;;;23.60;99.90;;;;;;10296247;28;20236;-90
2022/08/12 06:59:05;;;;;;;4.07;3.05;;;23.30;99.90;;;;;;10291971;28;20213;-89
2022/08/12 07:04:08;;;;;;;4.35;2.70;;;23.40;99.90;;;;;;10299101;28;20615;-89
2022/08/12 07:09:30;;;;;;;3.95;2.72;;;23.40;99.90;;;;;;10292370;28;20303;-90
2022/08/12 07:14:53;;;;;;;4.15;2.78;;;23.60;99.90;;;;;;10321083;28;20241;-89
2022/08/12 07:19:56;;;;;;;9.13;3.45;;;23.70;99.90;;;;;;10286548;28;20275;-91
2022/08/12 07:30:29;;;;;;;3.05;2.45;;;23.80;99.90;;;;;;10314156;28;20675;-90
2022/08/12 07:35:33;;;;;;;4.82;3.00;;;23.80;99.90;;;;;;10329820;28;20279;-89
2022/08/12 07:40:35;;;;;;;4.95;2.90;;;24.00;99.90;;;;;;10322304;28;20622;-89
2022/08/12 07:45:39;;;;;;;4.00;2.95;;;24.00;99.90;;;;;;10331440;28;20232;-89
2022/08/12 07:50:42;;;;;;;3.67;2.28;;;24.10;99.90;;;;;;10339158;28;20275;-91
2022/08/12 07:55:45;;;;;;;2.95;2.65;;;24.10;99.90;;;;;;10340519;28;20259;-90
2022/08/12 08:00:48;;;;;;;3.55;2.20;;;24.20;99.90;;;;;;10348342;28;20235;-89
2022/08/12 08:05:51;;;;;;;6.50;2.63;;;24.40;99.90;;;;;;10318104;28;20310;-90
2022/08/12 08:12:52;;;;;;;4.15;2.00;;;24.40;99.90;;;;;;10332984;28;20735;-90
2022/08/12 08:16:19;;;;;;;4.90;3.05;;;24.70;99.90;;;;;;10317784;28;20781;-90
2022/08/12 08:21:28;;;;;;;5.13;2.40;;;25.00;99.90;;;;;;10309104;28;20282;-91
2022/08/12 08:26:31;;;;;;;3.97;2.65;;;25.20;98.90;;;;;;10301205;28;20260;-90
2022/08/12 08:31:44;;;;;;;3.00;2.10;;;25.20;99.10;;;;;;10312034;28;20296;-90
2022/08/12 08:36:47;;;;;;;10.30;3.17;;;25.00;99.20;;;;;;10294036;28;20578;-91
2022/08/12 08:47:22;;;;;;;3.78;2.65;;;25.00;99.90;;;;;;10293028;28;20303;-90
2022/08/12 08:52:24;;;;;;;4.50;2.28;;;24.90;99.70;;;;;;10292397;28;20225;-91
2022/08/12 08:57:44;;;;;;;2.78;2.38;;;24.80;99.90;;;;;;10311168;28;20216;-89
2022/08/12 09:02:48;;;;;;;3.55;2.90;;;24.80;99.30;;;;;;10311421;28;20591;-90
2022/08/12 09:08:11;;;;;;;2.80;2.40;;;25.00;99.90;;;;;;10297091;28;20636;-90
2022/08/12 09:13:36;;;;;;;2.33;2.13;;;25.10;98.90;;;;;;10302897;28;20559;-90
2022/08/12 09:19:00;;;;;;;3.15;2.40;;;25.10;99.30;;;;;;10281038;28;20218;-89
2022/08/12 09:24:03;;;;;;;3.42;2.53;;;25.10;99.10;;;;;;10304047;28;20205;-90
2022/08/12 09:29:07;;;;;;;2.92;2.47;;;25.10;99.10;;;;;;10296614;28;20248;-90
2022/08/12 09:34:14;;;;;;;2.60;2.40;;;25.10;99.90;;;;;;10329449;28;20213;-90
2022/08/12 09:39:34;;;;;;;4.97;2.80;;;25.00;99.90;;;;;;10311456;28;20678;-90
2022/08/12 09:50:24;;;;;;;3.28;2.28;;;24.90;99.50;;;;;;10289241;28;20257;-92
2022/08/12 09:55:27;;;;;;;3.78;2.40;;;25.00;99.20;;;;;;10288661;28;20213;-91
2022/08/12 10:00:53;;;;;;;3.03;2.00;;;24.70;99.70;;;;;;10314741;28;20213;-91
2022/08/12 10:05:58;;;;;;;2.40;2.20;;;24.90;99.90;;;;;;10328023;28;20621;-93
2022/08/12 10:17:03;;;;;;;4.15;2.45;;;25.20;98.60;;;;;;10329688;28;20616;-92
2022/08/12 10:22:14;;;;;;;7.95;2.65;;;25.30;98.70;;;;;;10324094;28;20233;-91
2022/08/12 10:33:08;;;;;;;5.50;3.08;;;25.00;98.80;;;;;;10288014;28;20197;-91
2022/08/12 10:38:30;;;;;;;5.00;2.45;;;25.00;99.20;;;;;;9942549;28;10000440;-91
2022/08/12 10:43:43;;;;;;;6.63;2.60;;;24.70;99.90;;;;;;10295252;28;20286;-90
2022/08/12 10:48:59;;;;;;;5.38;2.28;;;25.60;98.90;;;;;;10317221;28;20676;-91
2022/08/12 10:54:26;;;;;;;2.85;2.45;;;25.40;98.50;;;;;;10287769;28;20288;-92
2022/08/12 10:59:29;;;;;;;5.28;2.40;;;25.50;98.20;;;;;;10317632;28;20209;-92
2022/08/12 11:04:56;;;;;;;2.45;2.25;;;25.40;99.90;;;;;;10330070;28;20760;-91
2022/08/12 11:10:00;;;;;;;7.03;2.42;;;25.50;99.50;;;;;;10309335;28;20334;-92
2022/08/12 11:15:05;;;;;;;2.50;2.30;;;25.30;98.50;;;;;;10323140;28;20205;-92
2022/08/12 11:20:23;;;;;;;8.88;2.83;;;25.30;98.70;;;;;;10346540;28;20232;-91
2022/08/12 11:25:32;;;;;;;4.35;2.38;;;25.50;99.90;;;;;;10339154;28;20291;-91
2022/08/12 11:30:55;;;;;;;3.45;3.03;;;25.40;98.40;;;;;;10324760;28;20260;-93
2022/08/12 11:36:06;;;;;;;3.17;2.65;;;25.60;99.40;;;;;;10335581;28;20647;-91
2022/08/12 11:41:17;;;;;;;3.72;2.38;;;25.30;99.90;;;;;;10339807;28;20211;-91
2022/08/12 11:46:40;;;;;;;2.55;2.35;;;25.60;99.90;;;;;;10309971;28;20209;-92
2022/08/12 11:51:42;;;;;;;3.47;2.45;;;25.60;99.90;;;;;;10343822;28;20260;-91
2022/08/12 11:56:59;;;;;;;2.80;2.60;;;25.20;99.70;;;;;;10319811;28;20193;-92
2022/08/12 12:02:05;;;;;;;2.95;2.65;;;25.20;99.90;;;;;;10296078;28;20257;-91
2022/08/12 12:07:08;;;;;;;2.72;2.53;;;25.00;99.50;;;;;;10314709;28;20275;-92
2022/08/12 12:12:13;;;;;;;5.40;3.10;;;25.10;99.20;;;;;;10329930;28;21054;-91
2022/08/12 12:17:16;;;;;;;3.53;2.63;;;24.80;99.90;;;;;;10350408;28;20743;-91
2022/08/12 12:22:20;;;;;;;8.57;3.72;;;24.90;99.90;;;;;;10349063;28;20200;-91
2022/08/12 12:27:28;;;;;;;4.78;2.65;;;25.20;99.90;;;;;;10349012;28;20258;-92
2022/08/12 12:32:51;;;;;;;3.80;2.58;;;25.30;99.90;;;;;;10334933;28;20623;-90
2022/08/12 12:37:56;;;;;;;2.78;2.40;;;25.10;99.40;;;;;;10346566;28;20264;-91
2022/08/12 12:43:07;;;;;;;8.80;2.75;;;25.60;99.90;;;;;;10292564;28;20296;-91
2022/08/12 12:48:16;;;;;;;3.42;3.13;;;26.40;99.90;;;;;;10303529;28;20248;-90
2022/08/12 12:53:20;;;;;;;3.10;2.83;;;25.60;98.50;;;;;;10317884;28;20228;-92
2022/08/12 12:58:43;;;;;;;3.83;2.70;;;25.30;99.30;;;;;;10328383;28;20240;-90
2022/08/12 13:03:47;;;;;;;2.97;2.78;;;25.20;99.40;;;;;;10329297;28;20259;-90
2022/08/12 13:08:58;;;;;;;2.88;2.67;;;25.00;99.90;;;;;;10282398;28;1117029;-90
2022/08/12 13:14:05;;;;;;;3.35;2.83;;;25.10;99.90;;;;;;10311958;28;20209;-90
2022/08/12 13:19:13;;;;;;;5.75;3.10;;;24.80;99.90;;;;;;10335972;28;20224;-91
2022/08/12 13:24:16;;;;;;;3.00;2.70;;;25.00;99.90;;;;;;10337898;28;20228;-91
2022/08/12 13:29:20;;;;;;;2.70;2.50;;;24.90;99.90;;;;;;10311525;28;20252;-90
2022/08/12 13:34:23;;;;;;;3.20;2.97;;;24.80;99.90;;;;;;10308331;28;20205;-91
2022/08/12 13:39:37;;;;;;;4.53;2.80;;;24.80;99.90;;;;;;10295364;28;20210;-91
2022/08/12 13:44:41;;;;;;;5.53;2.90;;;24.90;99.90;;;;;;10299062;28;20210;-90
2022/08/12 13:49:45;;;;;;;2.92;2.63;;;24.90;99.90;;;;;;10302118;28;20296;-91
2022/08/12 13:54:56;;;;;;;4.45;3.28;;;24.90;99.90;;;;;;10316493;28;20255;-91
2022/08/12 13:59:59;;;;;;;3.25;2.80;;;25.20;99.90;;;;;;10306311;23;20856;-80
2022/08/12 14:05:13;;;;;;;2.75;2.55;;;25.20;99.70;;;;;;10257742;28;20241;-79
2022/08/12 14:10:40;;;;;;;3.70;3.40;;;25.30;99.90;;;;;;10245521;29;20317;-80
2022/08/12 14:15:57;;;;;;;10.43;3.70;;;25.40;99.90;;;;;;10245133;29;20245;-80
2022/08/12 14:21:08;;;;;;;5.28;4.18;;;25.70;99.90;;;;;;10236397;28;20234;-80
2022/08/12 14:26:16;;;;;;;9.38;4.38;;;25.40;99.90;;;;;;10244606;28;20242;-80
2022/08/12 14:31:22;;;;;;;7.50;4.50;;;25.20;99.90;;;;;;10246555;29;20276;-82
2022/08/12 14:36:33;;;;;;;5.80;3.75;;;25.50;99.90;;;;;;10251155;28;20238;-81
2022/08/12 14:41:36;;;;;;;13.90;4.93;;;25.60;99.90;;;;;;10244878;28;20654;-81
2022/08/12 14:46:58;;;;;;;6.43;4.45;;;25.80;99.90;;;;;;10245625;28;20265;-81
2022/08/12 14:52:00;;;;;;;6.15;4.45;;;25.70;99.90;;;;;;10244427;29;21068;-81
2022/08/12 14:57:23;;;;;;;5.35;4.75;;;25.80;99.90;;;;;;10245631;28;20414;-81
2022/08/12 15:02:38;;;;;;;8.80;4.93;;;25.80;99.90;;;;;;10243179;28;20332;-81
2022/08/12 15:07:42;;;;;;;9.13;6.33;;;25.60;99.90;;;;;;10245805;28;20318;-79
2022/08/12 15:12:53;;;;;;;5.22;3.60;;;25.60;99.90;;;;;;10245719;29;20342;-79
2022/08/12 15:18:02;;;;;;;9.98;6.13;;;25.80;99.90;;;;;;10243561;28;20300;-80
2022/08/12 15:23:05;;;;;;;6.25;5.65;;;25.50;99.90;;;;;;10245052;28;20280;-80
2022/08/12 15:28:24;;;;;;;5.15;4.65;;;25.60;99.90;;;;;;10245127;29;20250;-80
2022/08/12 15:33:27;;;;;;;7.30;6.20;;;25.60;99.90;;;;;;10246447;29;20288;-80
2022/08/12 15:38:46;;;;;;;7.90;6.40;;;25.70;99.90;;;;;;10258305;28;20233;-79
2022/08/12 15:43:49;;;;;;;9.73;6.28;;;25.50;99.90;;;;;;10237098;28;20242;-80
2022/08/12 15:49:11;;;;;;;5.72;5.18;;;25.50;99.90;;;;;;10213363;29;20317;-80
2022/08/12 15:54:19;;;;;;;7.78;6.07;;;25.70;99.90;;;;;;10243204;29;20260;-80
2022/08/12 15:59:37;;;;;;;5.72;5.20;;;25.60;99.90;;;;;;10251915;28;20390;-80
2022/08/12 16:04:59;;;;;;;7.10;4.90;;;25.60;99.90;;;;;;9546006;28;9999716;-80
2022/08/12 16:10:04;;;;;;;6.60;4.47;;;25.40;99.90;;;;;;10247497;29;20311;-80
2022/08/12 16:15:12;;;;;;;7.25;6.43;;;25.60;99.90;;;;;;10265384;28;20738;-80
2022/08/12 16:20:20;;;;;;;6.75;5.88;;;25.30;99.90;;;;;;10248418;28;20233;-80
2022/08/12 16:25:23;;;;;;;4.53;4.13;;;25.30;99.90;;;;;;10250042;28;20265;-80
2022/08/12 16:30:46;;;;;;;5.28;4.78;;;25.20;99.90;;;;;;10248678;29;20690;-80
2022/08/12 16:35:51;;;;;;;6.75;4.82;;;25.20;99.90;;;;;;10248479;28;20238;-80
2022/08/12 16:40:55;;;;;;;5.22;4.72;;;25.10;99.90;;;;;;10248786;29;20237;-80
2022/08/12 16:46:03;;;;;;;7.38;5.47;;;25.00;99.90;;;;;;10247156;29;21035;-80
2022/08/12 16:51:26;;;;;;;5.38;4.70;;;25.00;99.90;;;;;;10221439;28;20254;-80
2022/08/12 16:56:30;;;;;;;12.18;5.22;;;24.90;99.90;;;;;;10239641;28;20237;-80
2022/08/12 17:01:35;;;;;;;11.55;4.65;;;25.00;99.90;;;;;;10250871;29;20270;-78
2022/08/12 17:06:41;;;;;;;6.20;5.32;;;25.00;99.90;;;;;;10251446;29;20233;-79
2022/08/12 17:11:46;;;;;;;7.13;5.03;;;25.00;99.90;;;;;;10249232;28;20317;-81
2022/08/12 17:16:53;;;;;;;6.57;5.38;;;25.00;99.90;;;;;;10250959;28;20230;-79
2022/08/12 17:22:04;;;;;;;7.32;5.13;;;25.10;99.90;;;;;;10249862;28;20711;-79
2022/08/12 17:27:07;;;;;;;9.93;5.72;;;25.00;99.90;;;;;;10248596;29;20242;-79
2022/08/12 17:32:21;;;;;;;7.40;6.57;;;25.00;99.90;;;;;;10249478;28;20249;-80
2022/08/12 17:37:32;;;;;;;15.73;5.70;;;24.80;99.90;;;;;;10248424;28;20230;-81
2022/08/12 17:42:36;;;;;;;7.28;5.57;;;24.60;99.90;;;;;;10227861;28;20238;-82
2022/08/12 17:47:40;;;;;;;7.07;6.18;;;24.50;99.90;;;;;;10250271;28;20308;-81
2022/08/12 17:52:44;;;;;;;9.85;6.00;;;24.40;99.90;;;;;;10249083;29;20321;-81
2022/08/12 17:57:56;;;;;;;6.07;5.57;;;24.30;99.90;;;;;;10248318;28;20230;-81
2022/08/12 18:03:03;;;;;;;8.20;4.63;;;24.20;99.90;;;;;;10244489;28;20287;-83
2022/08/12 18:08:10;;;;;;;23.90;8.75;;;23.90;99.90;;;;;;10263153;28;20198;-82
2022/08/12 18:13:13;;;;;;;23.58;8.45;;;23.90;99.90;;;;;;10248062;28;20749;-83
2022/08/12 18:18:37;;;;;;;22.70;8.75;;;23.80;99.90;;;;;;10262739;28;20991;-82
2022/08/12 18:23:43;;;;;;;19.23;7.50;;;23.80;99.90;;;;;;10249101;29;20296;-83
2022/08/12 18:28:56;;;;;;;21.63;8.80;;;23.70;99.90;;;;;;10242639;28;20254;-82
2022/08/12 18:34:01;;;;;;;41.45;9.63;;;23.60;99.90;;;;;;10247292;29;20230;-83
2022/08/12 18:39:06;;;;;;;38.20;11.68;;;23.50;99.90;;;;;;10246964;29;20289;-82
2022/08/12 18:44:11;;;;;;;20.52;8.32;;;23.50;99.90;;;;;;10248851;29;20757;-83
2022/08/12 18:49:16;;;;;;;19.67;9.00;;;23.50;99.90;;;;;;10247293;29;20309;-83
2022/08/12 18:54:26;;;;;;;28.92;8.77;;;23.40;99.90;;;;;;10248773;29;20230;-82
2022/08/12 18:59:30;;;;;;;21.02;8.88;;;23.40;99.90;;;;;;10248571;29;20233;-82
2022/08/12 19:04:53;;;;;;;20.65;8.10;;;23.30;99.90;;;;;;10247716;29;20226;-82
2022/08/12 19:09:56;;;;;;;16.45;8.55;;;23.30;99.90;;;;;;10247806;29;20253;-83
2022/08/12 19:15:07;;;;;;;20.27;8.00;;;23.30;99.90;;;;;;10246523;29;20230;-83
2022/08/12 19:20:12;;;;;;;22.50;8.65;;;23.30;99.90;;;;;;10245808;28;20694;-82
2022/08/12 19:25:22;;;;;;;19.15;8.18;;;23.20;99.90;;;;;;10247889;29;20281;-82
2022/08/12 19:36:06;;;;;;;29.55;9.52;;;23.30;99.90;;;;;;10246715;28;20210;-83
2022/08/12 19:41:27;;;;;;;19.77;9.13;;;23.20;99.90;;;;;;10247800;29;20284;-83
2022/08/12 19:46:51;;;;;;;20.08;7.53;;;23.20;99.90;;;;;;10247012;28;20292;-83
2022/08/12 19:51:54;;;;;;;31.48;8.48;;;23.20;99.90;;;;;;10241586;28;20708;-84
2022/08/12 19:56:58;;;;;;;27.83;8.70;;;23.10;99.90;;;;;;10214249;29;20680;-83
2022/08/12 20:02:10;;;;;;;26.27;6.97;;;23.50;99.90;;;;;;10247297;29;20258;-83
2022/08/12 20:07:19;;;;;;;22.70;7.95;;;23.80;99.90;;;;;;10245474;28;20214;-83
2022/08/12 20:12:34;;;;;;;15.13;6.95;;;24.10;99.90;;;;;;10261758;28;20290;-83
2022/08/12 20:17:56;;;;;;;31.20;7.22;;;24.30;99.90;;;;;;9889050;28;10000117;-83
2022/08/12 20:23:01;;;;;;;17.13;7.18;;;24.50;99.90;;;;;;10244766;29;20241;-82
2022/08/12 20:28:10;;;;;;;13.73;6.38;;;24.60;99.90;;;;;;10222644;28;20297;-83
2022/08/12 20:33:13;;;;;;;15.32;5.95;;;24.70;99.90;;;;;;10244410;28;20763;-82
2022/08/12 20:38:20;;;;;;;11.27;6.22;;;24.80;99.90;;;;;;10248923;28;20238;-82
2022/08/12 20:43:30;;;;;;;8.52;5.93;;;25.00;99.90;;;;;;10250407;29;20242;-82
2022/08/12 20:48:34;;;;;;;8.77;6.40;;;25.00;99.90;;;;;;10249263;28;20698;-84
2022/08/12 20:53:38;;;;;;;13.90;6.22;;;25.10;99.90;;;;;;10247935;28;20655;-83
2022/08/12 20:59:09;;;;;;;8.52;5.25;;;25.10;99.90;;;;;;10265375;28;20237;-83
2022/08/12 21:09:43;;;;;;;14.63;6.72;;;21.50;99.90;;;;;;10251726;28;20246;-84
2022/08/12 21:14:55;;;;;;;17.55;6.43;;;23.00;99.90;;;;;;10252282;28;20210;-86
2022/08/12 21:20:05;;;;;;;14.95;6.35;;;24.00;99.90;;;;;;10251243;28;20238;-87
2022/08/12 21:25:17;;;;;;;8.55;5.35;;;24.40;99.90;;;;;;10236914;28;20238;-85
2022/08/12 21:30:20;;;;;;;11.90;6.50;;;24.70;99.90;;;;;;10253446;28;20262;-85
2022/08/12 21:35:28;;;;;;;6.00;5.40;;;24.80;99.90;;;;;;10249198;28;20238;-85
2022/08/12 21:40:37;;;;;;;7.75;5.93;;;25.00;99.90;;;;;;10241897;28;20292;-86
2022/08/12 21:45:53;;;;;;;9.70;5.43;;;25.00;99.90;;;;;;10246363;28;20311;-85
2022/08/12 21:51:02;;;;;;;7.63;5.93;;;25.00;99.90;;;;;;10247705;28;20315;-87
2022/08/12 21:56:24;;;;;;;10.88;5.50;;;25.00;99.90;;;;;;10249324;28;20312;-88
2022/08/12 22:01:36;;;;;;;8.05;5.18;;;24.90;99.90;;;;;;10250570;29;20719;-88
2022/08/12 22:06:52;;;;;;;6.25;5.65;;;25.00;99.90;;;;;;10250081;29;20234;-88
2022/08/12 22:17:32;;;;;;;8.48;5.50;;;25.00;99.90;;;;;;10249027;28;20234;-88
2022/08/12 22:22:51;;;;;;;10.38;6.03;;;25.00;99.90;;;;;;10249458;29;20237;-88
2022/08/12 22:33:25;;;;;;;6.22;5.50;;;25.00;99.90;;;;;;10248051;28;20254;-88
2022/08/12 22:38:28;;;;;;;10.10;6.72;;;25.00;99.90;;;;;;10247635;28;20281;-88
2022/08/12 22:49:03;;;;;;;7.25;5.80;;;25.00;99.90;;;;;;10248860;29;20667;-88
2022/08/12 22:54:10;;;;;;;5.93;5.38;;;24.90;99.90;;;;;;10245203;28;20250;-88
2022/08/12 22:59:32;;;;;;;6.53;5.15;;;24.90;99.90;;;;;;10246578;28;20254;-88
2022/08/12 23:04:56;;;;;;;6.15;5.55;;;24.90;99.90;;;;;;10263179;28;20296;-88
2022/08/12 23:09:59;;;;;;;6.78;5.47;;;24.90;99.90;;;;;;10246959;29;20241;-88
2022/08/12 23:15:03;;;;;;;5.70;5.10;;;24.90;99.90;;;;;;10261169;28;20245;-88
2022/08/12 23:20:06;;;;;;;7.57;5.88;;;24.80;99.90;;;;;;10246750;28;20305;-88
2022/08/12 23:25:12;;;;;;;6.75;5.88;;;24.80;99.90;;;;;;10246950;29;20214;-88
2022/08/12 23:30:25;;;;;;;6.00;5.40;;;24.80;99.90;;;;;;10246261;29;20249;-88
2022/08/12 23:35:36;;;;;;;6.32;5.72;;;24.80;99.90;;;;;;10240190;28;20290;-89
2022/08/12 23:40:53;;;;;;;6.07;5.50;;;24.80;99.90;;;;;;10229992;28;20281;-88
2022/08/12 23:46:00;;;;;;;7.03;5.38;;;24.70;99.90;;;;;;10246568;28;20241;-88
2022/08/12 23:51:07;;;;;;;6.20;5.55;;;24.70;99.90;;;;;;10246054;28;20305;-88
2022/08/12 23:56:25;;;;;;;5.43;4.93;;;24.70;99.90;;;;;;10246151;28;20675;-89
